Time;durP1;ratioP1;P1;durP2;ratioP2;P2;SDS_P1;SDS_P2;PMS_P1;PMS_P2;Temp;Humidity;BMP_temperature;BMP_pressure;BME280_temperature;BME280_humidity;BME280_pressure;Samples;Min_cycle;Max_cycle;Signal;HPM_P1;HPM_P2
2022/08/19 00:01:29;;;;;;;0.60;0.40;;;23.50;62.30;;;;;;5114876;28;20114;-66
2022/08/19 00:03:56;;;;;;;0.60;0.30;;;23.50;62.30;;;;;;5113676;28;20043;-66
2022/08/19 00:06:22;;;;;;;0.65;0.30;;;23.50;62.20;;;;;;5113369;28;20120;-66
2022/08/19 00:08:47;;;;;;;0.60;0.40;;;23.50;62.30;;;;;;5113383;28;20075;-67
2022/08/19 00:11:13;;;;;;;0.65;0.30;;;23.50;62.30;;;;;;5113201;28;20048;-66
2022/08/19 00:13:39;;;;;;;0.55;0.30;;;23.40;62.20;;;;;;5130764;27;20028;-66
2022/08/19 00:16:06;;;;;;;0.68;0.32;;;23.40;62.20;;;;;;5113086;28;20503;-67
2022/08/19 00:18:33;;;;;;;0.95;0.30;;;23.40;62.20;;;;;;5113503;28;20043;-66
2022/08/19 00:20:59;;;;;;;0.60;0.30;;;23.40;62.10;;;;;;5113138;28;20047;-66
2022/08/19 00:23:26;;;;;;;0.57;0.30;;;23.40;62.10;;;;;;5113524;28;20044;-66
2022/08/19 00:25:51;;;;;;;0.57;0.30;;;23.40;62.10;;;;;;5112681;28;20067;-66
2022/08/19 00:28:18;;;;;;;1.58;0.40;;;23.40;62.10;;;;;;5112962;28;20055;-66
2022/08/19 00:30:44;;;;;;;0.52;0.30;;;23.40;62.10;;;;;;5112898;28;20047;-66
2022/08/19 00:33:09;;;;;;;0.47;0.30;;;23.40;62.10;;;;;;5113213;28;20044;-66
2022/08/19 00:35:38;;;;;;;0.60;0.40;;;23.40;62.10;;;;;;5114233;28;20044;-66
2022/08/19 00:38:06;;;;;;;0.57;0.30;;;23.40;62.10;;;;;;5113038;28;20397;-66
2022/08/19 00:40:32;;;;;;;0.80;0.50;;;23.40;62.00;;;;;;5112705;28;20510;-66
2022/08/19 00:42:57;;;;;;;1.30;0.32;;;23.40;62.10;;;;;;5112856;28;20043;-66
2022/08/19 00:45:26;;;;;;;0.38;0.20;;;23.40;62.00;;;;;;5129763;27;20036;-66
2022/08/19 00:47:52;;;;;;;0.90;0.40;;;23.40;62.00;;;;;;5113031;28;20480;-66
2022/08/19 00:50:20;;;;;;;0.50;0.30;;;23.40;62.00;;;;;;5112525;28;20040;-66
2022/08/19 00:52:49;;;;;;;0.52;0.30;;;23.40;62.10;;;;;;5112813;28;20394;-66
2022/08/19 00:55:21;;;;;;;0.47;0.38;;;23.40;62.00;;;;;;5112431;28;20047;-66
2022/08/19 00:57:54;;;;;;;0.98;0.40;;;23.30;62.00;;;;;;5112390;28;20051;-66
2022/08/19 01:00:22;;;;;;;0.75;0.40;;;23.30;62.00;;;;;;5113696;28;20040;-67
2022/08/19 01:02:48;;;;;;;1.27;0.40;;;23.40;62.00;;;;;;5112468;28;20035;-66
2022/08/19 01:05:20;;;;;;;1.75;0.30;;;23.30;61.90;;;;;;5112325;28;20046;-66
2022/08/19 01:07:47;;;;;;;0.82;0.35;;;23.30;61.90;;;;;;5112321;28;20043;-66
2022/08/19 01:10:18;;;;;;;0.70;0.40;;;23.30;61.90;;;;;;5112248;28;20048;-66
2022/08/19 01:12:44;;;;;;;;;;;23.30;61.90;;;;;;5112739;28;20036;-66
2022/08/19 01:15:13;;;;;;;0.50;0.20;;;23.30;61.90;;;;;;5112104;28;20371;-66
2022/08/19 01:17:40;;;;;;;0.55;0.30;;;23.30;61.90;;;;;;5112003;28;20047;-66
2022/08/19 01:20:10;;;;;;;0.43;0.30;;;23.30;61.90;;;;;;5112294;28;20103;-66
2022/08/19 01:22:47;;;;;;;0.52;0.30;;;23.30;61.90;;;;;;5111845;28;20051;-66
2022/08/19 01:25:18;;;;;;;0.63;0.30;;;23.30;61.90;;;;;;5111434;28;20096;-66
2022/08/19 01:27:47;;;;;;;1.02;0.40;;;23.30;61.90;;;;;;5113156;28;20399;-66
2022/08/19 01:30:19;;;;;;;2.65;0.30;;;23.20;61.80;;;;;;5112013;28;20111;-66
2022/08/19 01:32:44;;;;;;;0.50;0.25;;;23.30;61.80;;;;;;5111746;28;20054;-66
2022/08/19 01:35:12;;;;;;;1.20;0.80;;;23.30;61.80;;;;;;5111831;28;20036;-66
2022/08/19 01:37:59;;;;;;;0.90;0.30;;;23.30;61.80;;;;;;5111610;28;20047;-66
2022/08/19 01:40:30;;;;;;;0.43;0.35;;;23.20;61.70;;;;;;5112918;28;20075;-66
2022/08/19 01:42:56;;;;;;;0.70;0.30;;;23.30;61.80;;;;;;5112785;28;20043;-66
2022/08/19 01:45:26;;;;;;;0.90;0.30;;;23.20;61.70;;;;;;5111472;28;20043;-67
2022/08/19 01:47:52;;;;;;;1.20;0.40;;;23.20;61.70;;;;;;5112648;28;20043;-66
2022/08/19 01:50:18;;;;;;;0.63;0.30;;;23.20;61.70;;;;;;5112947;28;20265;-66
2022/08/19 01:52:45;;;;;;;0.85;0.40;;;23.20;61.70;;;;;;5128436;27;20045;-66
2022/08/19 01:55:16;;;;;;;0.45;0.30;;;23.20;61.70;;;;;;5112682;28;20526;-66
2022/08/19 01:57:48;;;;;;;0.68;0.40;;;23.20;61.70;;;;;;5111305;28;20092;-66
2022/08/19 02:00:16;;;;;;;0.50;0.30;;;23.20;61.70;;;;;;5112220;28;20091;-67
2022/08/19 02:02:42;;;;;;;0.82;0.30;;;23.20;61.70;;;;;;5111348;28;20059;-66
2022/08/19 02:05:08;;;;;;;0.90;0.30;;;23.20;61.70;;;;;;5112428;28;20040;-66
2022/08/19 02:07:35;;;;;;;0.70;0.30;;;23.20;61.70;;;;;;5128353;27;20070;-66
2022/08/19 02:10:04;;;;;;;0.55;0.20;;;23.20;61.60;;;;;;5111070;28;20044;-66
2022/08/19 02:12:30;;;;;;;1.30;0.30;;;23.20;61.60;;;;;;5112582;27;20031;-66
2022/08/19 02:14:55;;;;;;;0.60;0.30;;;23.20;61.60;;;;;;5112304;28;20510;-66
2022/08/19 02:17:21;;;;;;;0.50;0.30;;;23.20;61.60;;;;;;5112634;28;20036;-66
2022/08/19 02:19:47;;;;;;;0.52;0.20;;;23.20;61.60;;;;;;5112286;28;20068;-66
2022/08/19 02:22:13;;;;;;;0.85;0.40;;;23.20;61.60;;;;;;5128180;28;20505;-66
2022/08/19 02:24:38;;;;;;;0.60;0.28;;;23.20;62.30;;;;;;5110645;28;20044;-66
2022/08/19 02:27:05;;;;;;;1.55;0.20;;;23.10;61.50;;;;;;5112236;28;20040;-66
2022/08/19 02:29:31;;;;;;;0.95;0.30;;;23.10;61.50;;;;;;5111170;28;20066;-66
2022/08/19 02:31:57;;;;;;;0.82;0.30;;;23.20;61.60;;;;;;5127994;28;20485;-66
2022/08/19 02:34:24;;;;;;;0.70;0.40;;;23.10;61.50;;;;;;5112296;28;20054;-66
2022/08/19 02:36:51;;;;;;;1.15;0.60;;;23.10;61.50;;;;;;5110958;28;20036;-66
2022/08/19 02:39:17;;;;;;;0.60;0.28;;;23.10;61.40;;;;;;5110930;28;20031;-66
2022/08/19 02:41:43;;;;;;;0.52;0.30;;;23.10;61.40;;;;;;5112185;28;20048;-66
2022/08/19 02:44:08;;;;;;;0.90;0.40;;;23.10;61.40;;;;;;5112064;28;20043;-66
2022/08/19 02:46:34;;;;;;;0.40;0.20;;;23.10;61.40;;;;;;5110749;28;20226;-66
2022/08/19 02:49:05;;;;;;;0.63;0.30;;;23.10;61.40;;;;;;5111112;28;20043;-66
2022/08/19 02:51:38;;;;;;;0.65;0.32;;;23.10;61.40;;;;;;5110836;28;20047;-66
2022/08/19 02:54:06;;;;;;;0.47;0.20;;;23.10;61.40;;;;;;5111065;28;20040;-66
2022/08/19 02:56:35;;;;;;;1.25;0.40;;;23.10;61.40;;;;;;5110919;28;20039;-66
2022/08/19 02:59:01;;;;;;;1.40;0.20;;;23.10;61.30;;;;;;5110680;28;20055;-66
2022/08/19 03:01:29;;;;;;;0.65;0.30;;;23.10;61.30;;;;;;5110707;28;20047;-66
2022/08/19 03:03:56;;;;;;;0.40;0.22;;;23.10;61.30;;;;;;5110621;28;20384;-66
2022/08/19 03:06:23;;;;;;;1.00;0.20;;;23.10;61.30;;;;;;5110852;28;20378;-66
2022/08/19 03:08:49;;;;;;;0.68;0.30;;;23.10;61.30;;;;;;5110559;28;20069;-66
2022/08/19 03:11:20;;;;;;;0.40;0.20;;;23.10;61.30;;;;;;5129574;27;20035;-66
2022/08/19 03:13:46;;;;;;;1.13;0.25;;;23.10;61.20;;;;;;5115804;28;20395;-66
2022/08/19 03:16:12;;;;;;;1.08;0.50;;;23.10;61.20;;;;;;5115660;28;20032;-66
2022/08/19 03:18:38;;;;;;;0.50;0.30;;;23.10;61.20;;;;;;5114591;28;20043;-66
2022/08/19 03:21:05;;;;;;;0.55;0.25;;;23.10;61.20;;;;;;5097313;28;20124;-66
2022/08/19 03:23:31;;;;;;;0.52;0.20;;;23.10;61.20;;;;;;5114575;28;20067;-66
2022/08/19 03:25:56;;;;;;;1.60;0.20;;;23.00;61.10;;;;;;5113979;28;20086;-66
2022/08/19 03:28:22;;;;;;;0.77;0.30;;;23.00;61.10;;;;;;5115495;28;20032;-66
2022/08/19 03:33:42;;;;;;;0.60;0.40;;;23.00;61.10;;;;;;5130361;27;20755;-66
2022/08/19 03:38:51;;;;;;;0.40;0.20;;;23.00;61.10;;;;;;5130398;27;20921;-66
2022/08/19 03:41:21;;;;;;;0.30;0.20;;;23.00;61.10;;;;;;5129169;28;20035;-66
2022/08/19 03:43:48;;;;;;;0.43;0.30;;;23.00;61.00;;;;;;5130172;27;20042;-66
2022/08/19 03:46:20;;;;;;;0.50;0.25;;;23.00;61.00;;;;;;5128978;28;20042;-66
2022/08/19 03:48:47;;;;;;;0.45;0.20;;;23.00;61.00;;;;;;5128930;28;20039;-66
2022/08/19 03:51:19;;;;;;;0.47;0.30;;;23.00;61.00;;;;;;5128860;28;20082;-66
2022/08/19 03:53:45;;;;;;;1.42;0.40;;;23.00;60.90;;;;;;5128790;28;20040;-66
2022/08/19 03:56:12;;;;;;;0.32;0.20;;;23.00;61.00;;;;;;5129011;28;20036;-66
2022/08/19 03:58:39;;;;;;;1.00;0.35;;;23.00;60.90;;;;;;5128738;28;20081;-66
2022/08/19 04:01:10;;;;;;;0.50;0.20;;;22.90;60.90;;;;;;5130285;27;20093;-66
2022/08/19 04:03:35;;;;;;;0.50;0.30;;;23.00;60.90;;;;;;5129825;27;20043;-66
2022/08/19 04:06:18;;;;;;;0.30;0.20;;;23.00;60.90;;;;;;5128576;28;20035;-66
2022/08/19 04:08:45;;;;;;;0.30;0.20;;;23.00;60.90;;;;;;5128359;28;20047;-67
2022/08/19 04:11:14;;;;;;;0.30;0.20;;;22.90;60.90;;;;;;5145657;27;20055;-66
2022/08/19 04:13:40;;;;;;;1.20;0.20;;;22.90;60.80;;;;;;5128805;28;20506;-66
2022/08/19 04:16:07;;;;;;;0.32;0.20;;;22.90;60.80;;;;;;5129510;27;20528;-66
2022/08/19 04:18:33;;;;;;;0.38;0.20;;;22.90;60.80;;;;;;5129383;27;20047;-66
2022/08/19 04:21:00;;;;;;;0.47;0.20;;;22.90;60.80;;;;;;5128133;28;20039;-66
2022/08/19 04:23:27;;;;;;;0.35;0.20;;;22.90;60.70;;;;;;5129428;27;20073;-66
2022/08/19 04:25:54;;;;;;;0.32;0.20;;;22.90;60.70;;;;;;5128139;28;20566;-66
2022/08/19 04:28:20;;;;;;;0.65;0.22;;;22.90;60.70;;;;;;5128196;28;20070;-66
2022/08/19 04:30:49;;;;;;;1.58;0.20;;;22.90;60.70;;;;;;5128278;27;20168;-66
2022/08/19 04:33:17;;;;;;;2.03;0.20;;;22.90;60.70;;;;;;5127921;27;20514;-66
2022/08/19 04:35:48;;;;;;;0.30;0.13;;;22.90;60.80;;;;;;5127911;27;20487;-66
2022/08/19 04:38:15;;;;;;;0.63;0.30;;;22.90;60.70;;;;;;5128769;27;20091;-66
2022/08/19 04:43:29;;;;;;;0.55;0.28;;;22.90;60.60;;;;;;5127782;28;20398;-66
2022/08/19 04:45:55;;;;;;;0.40;0.20;;;22.80;60.60;;;;;;5129137;27;20112;-66
2022/08/19 04:48:25;;;;;;;0.50;0.30;;;22.90;60.60;;;;;;5124322;28;20036;-66
2022/08/19 04:50:58;;;;;;;0.40;0.30;;;22.90;60.60;;;;;;5114197;28;20039;-66
2022/08/19 04:56:09;;;;;;;0.50;0.20;;;22.90;60.60;;;;;;5130710;27;20788;-66
2022/08/19 04:58:36;;;;;;;0.35;0.20;;;22.90;60.60;;;;;;5129122;28;20081;-66
2022/08/19 05:01:03;;;;;;;0.30;0.20;;;22.80;60.60;;;;;;5129163;28;20039;-66
2022/08/19 05:03:31;;;;;;;0.50;0.20;;;22.80;60.50;;;;;;5128912;28;20078;-66
2022/08/19 05:05:56;;;;;;;0.28;0.20;;;22.80;60.50;;;;;;5129068;28;20092;-66
2022/08/19 05:08:22;;;;;;;0.73;0.30;;;22.80;60.50;;;;;;5129251;27;20463;-66
2022/08/19 05:10:50;;;;;;;0.82;0.32;;;22.80;60.40;;;;;;5130051;28;20092;-66
2022/08/19 05:13:19;;;;;;;0.40;0.20;;;22.80;60.40;;;;;;5129081;28;20035;-66
2022/08/19 05:15:54;;;;;;;0.25;0.10;;;22.80;60.50;;;;;;5128455;28;20368;-66
2022/08/19 05:23:54;;;;;;;0.47;0.30;;;22.80;60.40;;;;;;5128591;28;20054;-66
2022/08/19 05:26:20;;;;;;;0.40;0.20;;;22.80;60.40;;;;;;5128294;27;20495;-66
2022/08/19 05:28:45;;;;;;;0.20;0.13;;;22.80;60.30;;;;;;5128723;28;20039;-66
2022/08/19 05:31:11;;;;;;;0.50;0.20;;;22.80;60.30;;;;;;5128323;28;20394;-66
2022/08/19 05:33:39;;;;;;;0.47;0.30;;;22.80;60.30;;;;;;5128515;28;20048;-66
2022/08/19 05:36:05;;;;;;;0.40;0.20;;;22.80;60.40;;;;;;5129648;27;20114;-66
2022/08/19 05:38:31;;;;;;;0.45;0.20;;;22.70;60.30;;;;;;5128482;28;20035;-66
2022/08/19 05:40:56;;;;;;;0.40;0.20;;;22.80;60.30;;;;;;5128347;28;20395;-66
2022/08/19 05:43:22;;;;;;;0.25;0.20;;;22.80;60.30;;;;;;5128190;28;20074;-66
2022/08/19 05:45:48;;;;;;;0.55;0.30;;;22.80;60.30;;;;;;5127993;28;20047;-66
2022/08/19 05:48:14;;;;;;;0.35;0.20;;;22.80;60.30;;;;;;5128096;28;20043;-66
2022/08/19 05:50:41;;;;;;;0.40;0.30;;;22.80;60.30;;;;;;5127853;28;20031;-66
2022/08/19 05:53:08;;;;;;;1.13;0.20;;;22.70;60.20;;;;;;5128340;28;20118;-66
2022/08/19 05:55:37;;;;;;;0.40;0.20;;;22.70;60.20;;;;;;5127450;28;20403;-66
2022/08/19 05:58:03;;;;;;;0.40;0.20;;;22.70;60.20;;;;;;5128076;28;20043;-66
2022/08/19 06:00:30;;;;;;;0.30;0.20;;;22.70;60.20;;;;;;5128070;28;20118;-66
2022/08/19 06:02:59;;;;;;;1.45;0.20;;;22.70;60.20;;;;;;5127773;28;20118;-66
2022/08/19 06:05:24;;;;;;;1.58;0.28;;;22.70;60.20;;;;;;5125528;28;20039;-66
2022/08/19 06:07:50;;;;;;;0.52;0.20;;;22.80;60.30;;;;;;5115092;28;20031;-66
2022/08/19 06:10:16;;;;;;;0.55;0.30;;;22.70;60.20;;;;;;5115166;28;20032;-66
2022/08/19 06:12:41;;;;;;;0.35;0.20;;;22.70;60.20;;;;;;5113750;28;20035;-66
2022/08/19 06:15:11;;;;;;;1.58;0.20;;;22.70;60.20;;;;;;5113754;28;20043;-66
2022/08/19 06:17:37;;;;;;;0.40;0.20;;;22.70;60.20;;;;;;5113817;28;20048;-66
2022/08/19 06:20:06;;;;;;;0.50;0.20;;;22.70;60.20;;;;;;5113726;28;20320;-67
2022/08/19 06:22:31;;;;;;;0.45;0.20;;;22.70;60.20;;;;;;5114949;28;20399;-66
2022/08/19 06:24:57;;;;;;;0.80;0.15;;;22.70;60.20;;;;;;5114804;28;20039;-66
2022/08/19 06:27:22;;;;;;;0.95;0.20;;;22.70;60.20;;;;;;5114838;28;20531;-66
2022/08/19 06:29:49;;;;;;;0.30;0.20;;;22.70;60.20;;;;;;5113551;28;20036;-66
2022/08/19 06:32:16;;;;;;;0.38;0.20;;;22.70;60.20;;;;;;5113411;28;20111;-66
2022/08/19 06:34:42;;;;;;;0.50;0.30;;;22.70;60.20;;;;;;5113522;28;20052;-66
2022/08/19 06:37:08;;;;;;;0.32;0.20;;;22.70;60.20;;;;;;5113431;28;20089;-66
2022/08/19 06:39:38;;;;;;;0.50;0.20;;;22.70;60.30;;;;;;5113620;28;20031;-66
2022/08/19 06:42:06;;;;;;;0.55;0.20;;;22.70;60.20;;;;;;5113600;28;20028;-66
2022/08/19 06:44:35;;;;;;;0.90;0.20;;;22.60;60.20;;;;;;5113401;28;20031;-66
2022/08/19 06:47:04;;;;;;;1.27;0.22;;;22.70;60.20;;;;;;5113195;28;20489;-66
2022/08/19 06:49:31;;;;;;;0.57;0.20;;;22.70;60.20;;;;;;5113129;28;20039;-66
2022/08/19 06:51:58;;;;;;;0.45;0.30;;;22.70;60.30;;;;;;5113467;28;20043;-66
2022/08/19 06:54:25;;;;;;;0.70;0.35;;;22.70;60.30;;;;;;5113704;28;20407;-66
2022/08/19 06:56:51;;;;;;;0.55;0.30;;;22.70;60.30;;;;;;5113332;28;20050;-66
2022/08/19 06:59:20;;;;;;;0.63;0.30;;;22.70;60.30;;;;;;5112876;28;20619;-66
2022/08/19 07:01:49;;;;;;;0.70;0.22;;;22.70;60.30;;;;;;5113193;28;20036;-66
2022/08/19 07:04:17;;;;;;;1.08;0.30;;;22.70;60.30;;;;;;5112435;28;20043;-67
2022/08/19 07:06:44;;;;;;;0.47;0.20;;;22.70;60.30;;;;;;5112582;28;20122;-66
2022/08/19 07:09:13;;;;;;;0.52;0.30;;;22.70;60.30;;;;;;5111930;28;20039;-66
2022/08/19 07:11:43;;;;;;;0.38;0.20;;;22.70;60.30;;;;;;5111413;28;20043;-66
2022/08/19 07:14:08;;;;;;;1.25;0.25;;;22.70;60.30;;;;;;5113659;28;20051;-66
2022/08/19 07:16:34;;;;;;;0.30;0.20;;;22.70;60.20;;;;;;5112341;28;20032;-66
2022/08/19 07:19:00;;;;;;;0.68;0.20;;;22.80;60.30;;;;;;5109977;27;20039;-66
2022/08/19 07:21:28;;;;;;;1.08;0.30;;;22.70;60.30;;;;;;5092780;27;20423;-66
2022/08/19 07:23:56;;;;;;;0.50;0.20;;;22.70;60.20;;;;;;5088848;28;20100;-66
2022/08/19 07:26:26;;;;;;;0.70;0.20;;;22.70;60.20;;;;;;5100372;28;20036;-66
2022/08/19 07:28:53;;;;;;;0.40;0.32;;;22.70;60.30;;;;;;5105350;28;20138;-67
2022/08/19 07:31:21;;;;;;;0.45;0.25;;;22.70;60.20;;;;;;5098858;28;20039;-67
2022/08/19 07:33:48;;;;;;;0.30;0.20;;;22.70;60.20;;;;;;5096645;28;20475;-66
2022/08/19 07:36:18;;;;;;;0.40;0.30;;;22.70;60.20;;;;;;5108286;27;20568;-66
2022/08/19 07:38:47;;;;;;;0.50;0.30;;;22.70;60.30;;;;;;5094028;28;20043;-67
2022/08/19 07:41:20;;;;;;;1.10;0.40;;;22.70;60.20;;;;;;5097722;28;20044;-66
2022/08/19 07:43:47;;;;;;;0.40;0.20;;;22.80;60.30;;;;;;5117988;27;20043;-66
2022/08/19 07:46:13;;;;;;;0.45;0.30;;;22.80;60.30;;;;;;5097385;27;20036;-67
2022/08/19 07:48:42;;;;;;;0.32;0.20;;;22.70;60.20;;;;;;5095669;28;20044;-66
2022/08/19 07:51:10;;;;;;;0.60;0.30;;;22.70;60.20;;;;;;5096398;28;20048;-66
2022/08/19 07:53:37;;;;;;;0.30;0.20;;;22.80;60.20;;;;;;5091589;28;20114;-66
2022/08/19 07:56:04;;;;;;;0.55;0.30;;;22.80;60.20;;;;;;5098044;28;20535;-66
2022/08/19 07:58:33;;;;;;;0.30;0.20;;;22.70;60.20;;;;;;5096891;28;20434;-66
2022/08/19 08:01:00;;;;;;;0.30;0.20;;;22.80;60.30;;;;;;5101737;28;20048;-66
2022/08/19 08:09:21;;;;;;;0.45;0.20;;;22.80;60.20;;;;;;5096330;28;20047;-67
2022/08/19 08:11:53;;;;;;;0.95;0.40;;;22.80;60.20;;;;;;5097231;28;20101;-66
2022/08/19 08:14:23;;;;;;;0.30;0.22;;;22.80;60.20;;;;;;5096916;27;20040;-67
2022/08/19 08:16:50;;;;;;;0.50;0.30;;;22.80;60.20;;;;;;5096679;28;20380;-66
2022/08/19 08:19:17;;;;;;;1.30;0.30;;;22.80;60.20;;;;;;5100317;28;20114;-66
2022/08/19 08:21:44;;;;;;;0.47;0.20;;;22.80;60.20;;;;;;5097136;28;20043;-65
2022/08/19 08:24:10;;;;;;;2.60;0.82;;;22.80;60.20;;;;;;5115333;27;20058;-64
2022/08/19 08:26:36;;;;;;;4.95;1.35;;;22.80;61.10;;;;;;5095987;28;20054;-65
2022/08/19 08:29:02;;;;;;;6.07;1.08;;;22.90;62.20;;;;;;5097952;28;20042;-64
2022/08/19 08:31:28;;;;;;;1.30;0.90;;;22.90;62.60;;;;;;5094568;28;20106;-64
2022/08/19 08:33:54;;;;;;;5.90;1.40;;;22.90;62.80;;;;;;5099274;27;20118;-64
2022/08/19 08:36:20;;;;;;;3.75;1.25;;;23.00;63.00;;;;;;5119685;27;20371;-65
2022/08/19 08:38:46;;;;;;;2.92;1.05;;;23.00;63.20;;;;;;5113238;27;20032;-65
2022/08/19 08:41:27;;;;;;;4.68;1.42;;;23.10;63.60;;;;;;5093790;28;20039;-66
2022/08/19 08:43:55;;;;;;;5.57;1.35;;;23.20;63.80;;;;;;5097976;28;20039;-65
2022/08/19 08:46:43;;;;;;;5.50;1.30;;;23.20;63.70;;;;;;5101784;28;20047;-65
2022/08/19 08:51:57;;;;;;;4.25;1.20;;;23.20;63.80;;;;;;5114963;27;20416;-66
2022/08/19 08:54:28;;;;;;;6.68;1.08;;;23.30;63.70;;;;;;5125290;27;20040;-65
2022/08/19 08:56:54;;;;;;;3.55;1.58;;;23.30;63.70;;;;;;5123137;28;20040;-65
2022/08/19 09:02:02;;;;;;;5.43;1.58;;;23.40;63.60;;;;;;5115264;27;20456;-64
2022/08/19 09:04:28;;;;;;;5.80;1.73;;;23.40;63.50;;;;;;5101106;28;20048;-65
2022/08/19 09:09:46;;;;;;;2.25;2.05;;;23.50;63.50;;;;;;5132571;27;1211233;-65
2022/08/19 09:12:24;;;;;;;2.72;1.77;;;23.50;63.50;;;;;;5124145;27;20046;-65
2022/08/19 09:15:09;;;;;;;3.22;2.00;;;23.50;63.60;;;;;;5126306;27;20047;-64
2022/08/19 09:17:35;;;;;;;5.45;2.03;;;23.50;63.80;;;;;;5111333;27;20043;-65
2022/08/19 09:22:50;;;;;;;4.28;1.92;;;23.50;63.80;;;;;;5115783;27;20893;-65
2022/08/19 09:25:20;;;;;;;2.95;1.83;;;23.60;63.70;;;;;;5129003;27;20084;-65
2022/08/19 09:27:45;;;;;;;5.38;2.60;;;23.60;63.70;;;;;;5088078;28;20479;-67
2022/08/19 09:30:15;;;;;;;4.43;2.28;;;23.70;64.00;;;;;;5112637;28;20053;-65
2022/08/19 09:32:42;;;;;;;3.53;1.92;;;23.70;64.20;;;;;;5107569;28;20051;-65
2022/08/19 09:35:08;;;;;;;7.45;1.70;;;23.70;64.30;;;;;;5108788;28;20127;-66
2022/08/19 09:37:34;;;;;;;3.78;1.90;;;23.70;64.30;;;;;;5105173;28;20063;-65
2022/08/19 09:40:00;;;;;;;6.03;2.03;;;23.80;64.40;;;;;;5114725;28;20089;-65
2022/08/19 09:42:26;;;;;;;8.02;1.98;;;23.80;64.40;;;;;;5106440;28;20418;-65
2022/08/19 09:44:52;;;;;;;4.50;2.05;;;23.90;64.40;;;;;;5112447;28;20040;-65
2022/08/19 09:47:17;;;;;;;7.63;2.97;;;23.90;64.40;;;;;;5100959;28;20053;-66
2022/08/19 09:49:43;;;;;;;5.13;1.95;;;23.90;64.30;;;;;;5129991;27;20550;-64
2022/08/19 09:52:10;;;;;;;7.43;1.98;;;24.00;64.20;;;;;;5106361;28;20040;-65
2022/08/19 09:54:37;;;;;;;3.45;2.20;;;24.10;64.20;;;;;;5113530;28;20074;-66
2022/08/19 09:57:03;;;;;;;4.55;1.98;;;24.10;64.10;;;;;;5105080;28;20044;-65
2022/08/19 09:59:29;;;;;;;5.35;2.10;;;24.10;64.20;;;;;;5111859;28;20071;-66
2022/08/19 10:01:55;;;;;;;3.30;1.77;;;24.20;64.20;;;;;;5112380;28;20090;-65
2022/08/19 10:04:21;;;;;;;3.83;1.77;;;24.20;64.00;;;;;;5112754;28;20074;-65
2022/08/19 10:06:48;;;;;;;6.43;2.10;;;24.20;64.00;;;;;;5111015;28;20464;-66
2022/08/19 10:09:16;;;;;;;5.10;1.88;;;24.20;64.00;;;;;;5121923;28;20050;-66
2022/08/19 10:11:46;;;;;;;8.60;3.45;;;24.20;64.00;;;;;;5105823;28;20055;-66
2022/08/19 10:14:11;;;;;;;5.80;2.03;;;24.30;64.00;;;;;;5104788;28;20141;-66
2022/08/19 10:16:38;;;;;;;3.22;2.25;;;24.30;64.00;;;;;;5105084;28;20054;-66
2022/08/19 10:19:04;;;;;;;3.80;1.48;;;24.30;63.80;;;;;;5120516;28;20031;-67
2022/08/19 10:21:32;;;;;;;6.00;2.35;;;24.30;63.80;;;;;;5105040;28;20063;-65
2022/08/19 10:24:01;;;;;;;3.17;1.90;;;24.40;63.90;;;;;;5106735;28;20052;-66
2022/08/19 10:26:29;;;;;;;7.15;2.50;;;24.40;63.90;;;;;;5107881;28;20048;-66
2022/08/19 10:28:56;;;;;;;6.15;2.50;;;24.40;63.80;;;;;;5106848;28;20035;-65
2022/08/19 10:31:25;;;;;;;4.65;2.63;;;24.40;63.60;;;;;;5123892;28;20035;-65
2022/08/19 10:33:57;;;;;;;13.97;3.23;;;24.40;63.50;;;;;;5094665;28;20044;-64
2022/08/19 10:36:25;;;;;;;9.40;2.35;;;24.40;63.30;;;;;;5092525;28;20085;-65
2022/08/19 10:38:52;;;;;;;3.28;2.33;;;24.40;62.90;;;;;;5092056;28;20047;-64
2022/08/19 10:41:22;;;;;;;10.30;3.20;;;24.40;62.70;;;;;;5094322;28;20402;-64
2022/08/19 10:43:54;;;;;;;7.50;2.90;;;24.40;62.50;;;;;;5093421;28;20502;-64
2022/08/19 10:46:20;;;;;;;4.63;2.85;;;24.40;62.40;;;;;;5092572;28;20032;-64
2022/08/19 10:48:46;;;;;;;5.68;2.83;;;24.40;62.20;;;;;;5091155;28;20048;-66
2022/08/19 10:53:59;;;;;;;8.70;2.90;;;24.40;61.90;;;;;;5092581;28;20055;-66
2022/08/19 10:56:56;;;;;;;11.93;3.25;;;24.40;61.90;;;;;;5092697;28;20036;-65
2022/08/19 10:59:13;;;;;;;6.78;3.17;;;24.40;62.00;;;;;;5090992;28;20530;-66
2022/08/19 11:01:40;;;;;;;5.50;3.10;;;24.40;61.90;;;;;;5092461;28;20036;-66
2022/08/19 11:04:09;;;;;;;5.28;2.58;;;24.40;61.80;;;;;;5093331;28;20051;-67
2022/08/19 11:06:36;;;;;;;2.90;2.53;;;24.50;61.80;;;;;;5093961;28;20510;-67
2022/08/19 11:09:02;;;;;;;4.78;3.00;;;24.50;61.70;;;;;;5092032;28;20055;-66
2022/08/19 11:11:28;;;;;;;5.88;3.03;;;24.50;61.60;;;;;;5091196;28;20043;-66
2022/08/19 11:13:54;;;;;;;6.60;3.80;;;24.50;61.70;;;;;;5090604;28;20040;-68
2022/08/19 11:16:22;;;;;;;6.10;3.50;;;24.50;61.60;;;;;;5092009;28;20050;-66
2022/08/19 11:18:52;;;;;;;7.07;3.47;;;24.50;61.50;;;;;;5090724;28;20098;-65
2022/08/19 11:21:24;;;;;;;9.55;3.08;;;24.50;61.60;;;;;;5091517;28;20415;-65
2022/08/19 11:23:52;;;;;;;9.73;3.63;;;24.50;61.60;;;;;;5092869;28;20043;-65
2022/08/19 11:26:19;;;;;;;7.75;3.20;;;24.50;61.60;;;;;;5091692;28;20476;-65
2022/08/19 11:28:45;;;;;;;4.68;3.10;;;24.50;61.40;;;;;;5099571;28;20067;-67
2022/08/19 11:31:13;;;;;;;6.10;3.75;;;24.50;61.50;;;;;;5091757;28;20035;-67
2022/08/19 11:33:40;;;;;;;3.80;2.85;;;24.50;61.60;;;;;;5092576;28;20472;-66
2022/08/19 11:36:06;;;;;;;6.32;4.20;;;24.50;61.60;;;;;;5091417;28;20047;-66
2022/08/19 11:38:32;;;;;;;6.53;3.72;;;24.50;61.60;;;;;;5088672;28;20048;-67
2022/08/19 11:40:59;;;;;;;4.28;3.85;;;24.60;61.70;;;;;;5092208;28;20097;-65
2022/08/19 11:43:26;;;;;;;5.75;4.00;;;24.60;61.80;;;;;;5090960;28;20043;-66
2022/08/19 11:45:53;;;;;;;6.88;4.40;;;24.60;61.80;;;;;;5091229;28;20051;-67
2022/08/19 11:48:22;;;;;;;7.40;4.38;;;24.50;61.60;;;;;;5090428;28;20259;-66
2022/08/19 11:50:49;;;;;;;4.68;4.18;;;24.60;61.60;;;;;;5091910;28;20039;-67
2022/08/19 11:53:16;;;;;;;4.45;3.78;;;24.60;61.60;;;;;;5091024;28;20052;-67
2022/08/19 11:55:42;;;;;;;3.83;3.53;;;24.60;61.60;;;;;;5098279;28;20040;-65
2022/08/19 11:58:09;;;;;;;6.00;4.20;;;24.60;61.60;;;;;;5090953;28;20059;-66
2022/08/19 12:00:36;;;;;;;9.43;3.92;;;24.60;61.50;;;;;;5089833;28;20043;-67
2022/08/19 12:03:02;;;;;;;12.10;4.30;;;24.60;61.40;;;;;;5107894;28;20504;-67
2022/08/19 12:05:28;;;;;;;8.70;4.38;;;24.60;61.40;;;;;;5090928;28;20479;-66
2022/08/19 12:07:54;;;;;;;5.95;3.90;;;24.60;61.30;;;;;;5108396;28;20040;-66
2022/08/19 12:10:20;;;;;;;7.18;3.90;;;24.60;61.20;;;;;;5090918;28;20039;-66
2022/08/19 12:12:46;;;;;;;8.05;3.67;;;24.60;61.20;;;;;;5091472;28;20055;-66
2022/08/19 12:15:14;;;;;;;6.25;4.53;;;24.60;61.10;;;;;;5095030;28;20395;-66
2022/08/19 12:17:41;;;;;;;5.57;3.80;;;24.60;61.10;;;;;;5091340;28;20131;-66
2022/08/19 12:20:10;;;;;;;6.60;4.43;;;24.60;61.00;;;;;;5096429;28;20044;-65
2022/08/19 12:22:37;;;;;;;10.52;4.20;;;24.60;60.90;;;;;;5090595;28;20048;-65
2022/08/19 12:25:04;;;;;;;9.48;4.20;;;24.60;60.80;;;;;;5091253;28;20091;-65
2022/08/19 12:27:30;;;;;;;9.80;4.28;;;24.50;60.80;;;;;;5092644;28;20038;-66
2022/08/19 12:29:56;;;;;;;6.38;4.40;;;24.50;60.90;;;;;;5091503;28;20114;-65
2022/08/19 12:32:24;;;;;;;8.10;5.10;;;24.50;60.90;;;;;;5091120;28;20051;-65
2022/08/19 12:34:50;;;;;;;8.10;4.43;;;24.40;60.90;;;;;;5091528;28;20036;-65
2022/08/19 12:37:16;;;;;;;9.23;4.60;;;24.40;61.00;;;;;;5091029;28;20035;-65
2022/08/19 12:39:43;;;;;;;4.30;3.80;;;24.30;61.00;;;;;;5089707;28;20406;-65
2022/08/19 12:42:11;;;;;;;4.28;3.67;;;24.40;61.10;;;;;;5089777;28;20036;-64
2022/08/19 12:44:39;;;;;;;4.47;3.63;;;24.40;60.80;;;;;;5090292;28;20036;-65
2022/08/19 12:47:06;;;;;;;4.80;4.40;;;24.40;60.40;;;;;;5090406;28;20044;-64
2022/08/19 12:49:33;;;;;;;4.80;3.97;;;24.50;60.20;;;;;;5091063;28;20071;-64
2022/08/19 12:52:00;;;;;;;5.90;4.65;;;24.50;60.20;;;;;;5090452;28;20052;-64
2022/08/19 12:54:27;;;;;;;3.90;3.60;;;24.50;60.00;;;;;;5090438;28;20075;-64
2022/08/19 12:56:53;;;;;;;4.85;4.18;;;24.60;60.00;;;;;;5090869;28;20433;-64
2022/08/19 12:59:19;;;;;;;4.60;4.20;;;24.60;59.90;;;;;;5090102;28;20118;-65
2022/08/19 13:01:45;;;;;;;4.60;4.20;;;24.60;59.80;;;;;;5092024;28;20126;-64
2022/08/19 13:04:11;;;;;;;5.03;4.63;;;24.60;59.80;;;;;;5075334;28;20060;-64
2022/08/19 13:06:37;;;;;;;5.47;4.97;;;24.70;59.80;;;;;;5085145;28;20103;-65
2022/08/19 13:09:04;;;;;;;4.90;4.45;;;24.70;59.80;;;;;;5067899;28;20558;-65
2022/08/19 13:11:33;;;;;;;4.82;4.43;;;24.70;59.70;;;;;;5080430;28;20403;-64
2022/08/19 13:13:59;;;;;;;4.60;4.20;;;24.70;59.60;;;;;;5091047;28;20438;-64
2022/08/19 13:16:27;;;;;;;5.13;4.68;;;24.70;59.40;;;;;;5090724;28;20118;-64
2022/08/19 13:18:54;;;;;;;3.78;3.45;;;24.70;59.20;;;;;;5090594;28;20491;-64
2022/08/19 13:21:22;;;;;;;4.90;4.50;;;24.70;59.00;;;;;;5091722;28;20048;-65
2022/08/19 13:23:48;;;;;;;3.95;3.63;;;24.70;58.80;;;;;;5090878;28;20044;-64
2022/08/19 13:26:15;;;;;;;4.10;3.80;;;24.70;58.70;;;;;;5090165;28;20043;-65